createdAt,value
2018-12-01T00:04:59.064Z,31.67
2018-12-01T00:10:01.762Z,32.13
2018-12-01T00:15:07.877Z,31.23
2018-12-01T00:20:12.529Z,31.77
2018-12-01T00:25:15.182Z,30.37
2018-12-01T00:30:19.699Z,29.87
2018-12-01T00:35:22.327Z,31.40
2018-12-01T00:40:24.960Z,32.50
2018-12-01T00:45:27.592Z,31.07
2018-12-01T00:50:30.237Z,31.30
2018-12-01T00:55:32.869Z,32.33
2018-12-01T01:00:35.515Z,32.73
2018-12-01T01:05:38.123Z,33.27
2018-12-01T01:10:40.720Z,32.57
2018-12-01T01:15:43.408Z,32.00
2018-12-01T01:20:46.660Z,32.57
2018-12-01T01:25:49.256Z,31.47
2018-12-01T01:30:51.837Z,32.27
2018-12-01T01:35:54.436Z,32.00
2018-12-01T01:41:02.980Z,31.47
2018-12-01T01:46:05.642Z,31.27
2018-12-01T01:51:08.356Z,31.50
2018-12-01T01:56:10.981Z,32.23
2018-12-01T02:01:13.589Z,31.20
2018-12-01T02:06:16.185Z,31.47
2018-12-01T02:11:18.887Z,31.60
2018-12-01T02:16:21.525Z,31.40
2018-12-01T02:21:25.332Z,31.40
2018-12-01T02:26:28.013Z,30.67
2018-12-01T02:31:30.656Z,31.23
2018-12-01T02:36:33.257Z,31.50
2018-12-01T02:41:35.871Z,32.83
2018-12-01T02:47:04.098Z,32.40
2018-12-01T02:52:06.767Z,33.40
2018-12-01T02:57:09.377Z,33.60
2018-12-01T03:02:12.034Z,33.33
2018-12-01T03:07:14.668Z,32.10
2018-12-01T03:12:17.262Z,34.53
2018-12-01T03:17:19.892Z,34.07
2018-12-01T03:22:22.577Z,33.70
2018-12-01T03:27:29.832Z,31.37
2018-12-01T03:32:32.465Z,34.13
2018-12-01T03:37:35.125Z,32.57
2018-12-01T03:42:37.733Z,30.97
2018-12-01T03:47:40.409Z,32.73
2018-12-01T03:52:43.114Z,34.30
2018-12-01T03:57:45.734Z,33.57
2018-12-01T04:02:48.317Z,33.57
2018-12-01T04:07:50.929Z,32.70
2018-12-01T04:12:54.034Z,33.70
2018-12-01T04:17:56.707Z,34.50
2018-12-01T04:23:00.135Z,35.13
2018-12-01T04:28:02.790Z,36.20
2018-12-01T04:33:05.592Z,33.23
2018-12-01T04:38:08.205Z,34.20
2018-12-01T04:43:10.794Z,32.20
2018-12-01T04:48:13.429Z,34.07
2018-12-01T04:53:16.144Z,34.50
2018-12-01T04:58:18.752Z,33.57
2018-12-01T05:03:21.347Z,32.63
2018-12-01T05:08:23.957Z,34.43
2018-12-01T05:13:26.571Z,35.20
2018-12-01T05:18:29.194Z,35.67
2018-12-01T05:23:31.905Z,34.90
2018-12-01T05:28:34.464Z,33.83
2018-12-01T05:33:37.003Z,34.30
2018-12-01T05:38:39.685Z,34.50
2018-12-01T05:43:42.297Z,34.43
2018-12-01T05:48:44.980Z,35.03
2018-12-01T05:53:47.640Z,34.87
2018-12-01T05:58:50.395Z,34.63
2018-12-01T06:03:53.030Z,35.33
2018-12-01T06:08:55.615Z,34.70
2018-12-01T06:13:58.228Z,35.90
2018-12-01T06:19:00.864Z,36.63
2018-12-01T06:24:03.741Z,35.93
2018-12-01T06:29:06.372Z,34.27
2018-12-01T06:34:09.005Z,36.13
2018-12-01T06:39:11.630Z,35.33
2018-12-01T06:44:14.353Z,35.87
2018-12-01T06:49:17.004Z,34.30
2018-12-01T06:54:19.655Z,34.67
2018-12-01T06:59:22.252Z,34.27
2018-12-01T07:04:24.924Z,36.30
2018-12-01T07:09:27.624Z,35.87
2018-12-01T07:14:30.217Z,36.27
2018-12-01T07:19:32.780Z,36.13
2018-12-01T07:24:35.412Z,35.77
2018-12-01T07:29:38.112Z,35.77
2018-12-01T07:34:40.754Z,35.23
2018-12-01T07:39:43.423Z,35.00
2018-12-01T07:44:47.013Z,36.60
2018-12-01T07:49:48.651Z,35.53
2018-12-01T07:54:51.380Z,34.67
2018-12-01T07:59:54.160Z,37.13
2018-12-01T08:04:57.060Z,35.33
2018-12-01T08:09:59.809Z,35.63
2018-12-01T08:15:03.527Z,35.93
2018-12-01T08:20:08.689Z,36.67
2018-12-01T08:25:13.468Z,36.87
2018-12-01T08:30:20.037Z,36.23
2018-12-01T08:35:23.673Z,34.63
2018-12-01T08:40:28.008Z,36.13
2018-12-01T08:45:30.741Z,35.20
2018-12-01T08:50:33.229Z,33.90
2018-12-01T08:55:35.831Z,34.73
2018-12-01T09:00:41.035Z,33.30
2018-12-01T09:05:43.756Z,35.17
2018-12-01T09:10:46.389Z,33.23
2018-12-01T09:15:48.981Z,33.40
2018-12-01T09:20:51.609Z,31.10
2018-12-01T09:25:54.539Z,30.67
2018-12-01T09:30:57.158Z,29.87
2018-12-01T09:36:00.009Z,29.50
2018-12-01T09:41:02.678Z,30.43
2018-12-01T09:46:05.345Z,28.43
2018-12-01T09:51:08.273Z,29.43
2018-12-01T09:56:11.117Z,29.80
2018-12-01T10:01:13.730Z,27.87
2018-12-01T10:06:16.499Z,26.40
2018-12-01T10:11:19.104Z,26.40
2018-12-01T10:16:21.964Z,26.43
2018-12-01T10:21:24.577Z,25.07
2018-12-01T10:26:27.197Z,23.77
2018-12-01T10:31:29.877Z,23.73
2018-12-01T10:36:32.545Z,23.23
2018-12-01T10:41:35.237Z,22.93
2018-12-01T10:46:37.824Z,23.20
2018-12-01T10:51:40.443Z,22.37
2018-12-01T10:56:43.165Z,23.33
2018-12-01T11:01:51.499Z,24.43
2018-12-01T11:06:54.209Z,23.73
2018-12-01T11:11:56.843Z,23.53
2018-12-01T11:16:59.536Z,23.37
2018-12-01T11:22:02.189Z,24.33
2018-12-01T11:27:05.117Z,21.53
2018-12-01T11:32:07.778Z,22.07
2018-12-01T11:37:10.356Z,22.03
2018-12-01T11:42:12.969Z,23.00
2018-12-01T11:47:15.678Z,22.90
2018-12-01T11:52:18.335Z,22.80
2018-12-01T11:57:20.977Z,23.33
2018-12-01T12:02:23.726Z,22.80
2018-12-01T12:07:43.732Z,21.50
2018-12-01T12:12:46.532Z,22.77
2018-12-01T12:18:05.408Z,22.60
2018-12-01T12:23:08.082Z,22.77
2018-12-01T12:28:10.797Z,23.33
2018-12-01T12:33:13.393Z,22.93
2018-12-01T12:38:16.004Z,22.80
2018-12-01T12:43:18.581Z,23.40
2018-12-01T12:48:21.161Z,22.27
2018-12-01T12:53:23.776Z,23.13
2018-12-01T12:58:26.410Z,23.97
2018-12-01T13:03:29.004Z,24.83
2018-12-01T13:08:31.638Z,24.77
2018-12-01T13:13:34.279Z,24.43
2018-12-01T13:18:36.869Z,24.43
2018-12-01T13:23:39.504Z,25.23
2018-12-01T13:28:42.131Z,24.23
2018-12-01T13:33:45.119Z,25.27
2018-12-01T13:38:47.840Z,26.63
2018-12-01T13:43:50.452Z,25.93
2018-12-01T13:48:53.186Z,25.77
2018-12-01T13:53:55.847Z,26.10
2018-12-01T13:58:58.782Z,25.83
2018-12-01T14:04:01.407Z,26.57
2018-12-01T14:09:06.797Z,24.77
2018-12-01T14:14:09.740Z,24.43
2018-12-01T14:19:12.413Z,23.60
2018-12-01T14:24:15.213Z,23.90
2018-12-01T14:29:17.866Z,25.50
2018-12-01T14:34:20.594Z,25.53
2018-12-01T14:39:23.209Z,25.03
2018-12-01T14:44:25.810Z,23.37
2018-12-01T14:49:28.356Z,24.60
2018-12-01T14:54:31.004Z,25.77
2018-12-01T14:59:33.679Z,25.47
2018-12-01T15:04:36.481Z,24.93
2018-12-01T15:09:39.064Z,26.90
2018-12-01T15:14:41.698Z,26.27
2018-12-01T15:19:44.287Z,26.77
2018-12-01T15:24:46.831Z,25.30
2018-12-01T15:29:49.447Z,26.33
2018-12-01T15:34:52.189Z,27.07
2018-12-01T15:39:54.776Z,25.27
2018-12-01T15:44:57.398Z,25.43
2018-12-01T15:49:59.991Z,25.33
2018-12-01T15:55:02.641Z,26.13
2018-12-01T16:00:25.544Z,25.80
2018-12-01T16:05:28.167Z,24.40
2018-12-01T16:10:30.830Z,26.50
2018-12-01T16:15:35.913Z,25.37
2018-12-01T16:20:38.759Z,23.93
2018-12-01T16:25:41.781Z,25.27
2018-12-01T16:30:45.299Z,24.33
2018-12-01T16:35:49.162Z,23.43
2018-12-01T16:40:56.339Z,24.53
2018-12-01T16:45:59.268Z,26.48
2018-12-01T16:51:01.977Z,20.23
2018-12-01T16:56:04.945Z,19.13
2018-12-01T17:01:07.582Z,19.00
2018-12-01T17:06:15.528Z,18.30
2018-12-01T17:11:18.205Z,18.17
2018-12-01T17:16:20.983Z,15.97
2018-12-01T17:21:23.616Z,15.27
2018-12-01T17:26:26.181Z,15.73
2018-12-01T17:31:28.844Z,16.50
2018-12-01T17:36:31.442Z,15.80
2018-12-01T17:41:34.056Z,15.33
2018-12-01T17:46:36.801Z,15.13
2018-12-01T17:51:39.437Z,15.07
2018-12-01T17:56:42.184Z,14.60
2018-12-01T18:01:44.796Z,13.73
2018-12-01T18:06:47.424Z,14.03
2018-12-01T18:11:50.113Z,14.10
2018-12-01T18:16:53.642Z,14.50
2018-12-01T18:21:56.240Z,14.63
2018-12-01T18:26:58.940Z,14.80
2018-12-01T18:32:01.535Z,15.00
2018-12-01T18:37:04.136Z,14.60
2018-12-01T18:42:06.760Z,14.73
2018-12-01T18:47:09.326Z,12.70
2018-12-01T18:52:11.927Z,13.83
2018-12-01T18:57:14.597Z,13.23
2018-12-01T19:02:17.288Z,12.90
2018-12-01T19:07:19.863Z,13.43
2018-12-01T19:12:22.469Z,12.37
2018-12-01T19:17:25.116Z,12.60
2018-12-01T19:22:27.841Z,12.07
2018-12-01T19:27:30.582Z,12.27
2018-12-01T19:32:33.522Z,12.60
2018-12-01T19:37:36.285Z,12.03
2018-12-01T19:42:38.919Z,11.20
2018-12-01T19:47:41.532Z,11.10
2018-12-01T19:52:44.268Z,11.87
2018-12-01T19:57:46.888Z,11.87
2018-12-01T20:02:49.810Z,12.20
2018-12-01T20:07:52.596Z,12.37
2018-12-01T20:12:59.541Z,13.90
2018-12-01T20:18:07.040Z,11.63
2018-12-01T20:23:09.796Z,12.33
2018-12-01T20:28:12.444Z,11.37
2018-12-01T20:33:15.926Z,11.83
2018-12-01T20:38:41.688Z,11.33
2018-12-01T20:43:44.262Z,11.47
2018-12-01T20:48:46.940Z,11.37
2018-12-01T20:53:49.958Z,11.33
2018-12-01T20:58:52.609Z,11.17
2018-12-01T21:03:55.234Z,11.40
2018-12-01T21:08:57.873Z,12.07
2018-12-01T21:14:00.479Z,11.70
2018-12-01T21:19:03.152Z,12.53
2018-12-01T21:24:06.588Z,11.97
2018-12-01T21:29:09.215Z,12.70
2018-12-01T21:34:11.752Z,12.50
2018-12-01T21:39:14.496Z,12.50
2018-12-01T21:44:17.108Z,11.53
2018-12-01T21:49:19.732Z,12.10
2018-12-01T21:54:22.328Z,12.27
2018-12-01T21:59:24.873Z,12.53
2018-12-01T22:04:27.484Z,13.30
2018-12-01T22:09:30.060Z,13.03
2018-12-01T22:14:32.681Z,12.80
2018-12-01T22:19:35.280Z,13.07
2018-12-01T22:24:37.933Z,12.43
2018-12-01T22:29:40.609Z,13.27
2018-12-01T22:34:43.203Z,12.50
2018-12-01T22:39:45.877Z,12.90
2018-12-01T22:44:48.593Z,12.90
2018-12-01T22:49:51.270Z,12.80
2018-12-01T22:54:53.980Z,12.83
2018-12-01T22:59:56.693Z,13.23
2018-12-01T23:04:59.360Z,13.93
2018-12-01T23:10:02.004Z,13.40
2018-12-01T23:15:06.805Z,13.17
2018-12-01T23:20:19.351Z,13.77
2018-12-01T23:25:22.068Z,14.13
2018-12-01T23:30:27.805Z,13.40
2018-12-01T23:35:31.047Z,14.87
2018-12-01T23:40:33.710Z,13.47
2018-12-01T23:45:38.744Z,13.80
2018-12-01T23:50:45.121Z,13.93
2018-12-01T23:55:47.776Z,13.53
